createdAt,value
2019-06-20T00:00:02.569Z,2.20
2019-06-20T00:02:31.138Z,3.70
2019-06-20T00:04:59.648Z,2.23
2019-06-20T00:07:28.214Z,3.23
2019-06-20T00:09:56.740Z,4.63
2019-06-20T00:12:25.312Z,2.67
2019-06-20T00:14:53.895Z,3.47
2019-06-20T00:17:22.422Z,3.43
2019-06-20T00:19:50.924Z,2.40
2019-06-20T00:22:19.486Z,2.20
2019-06-20T00:24:48.041Z,3.73
2019-06-20T00:27:16.602Z,3.30
2019-06-20T00:29:45.099Z,3.73
2019-06-20T00:32:13.630Z,3.42
2019-06-20T00:34:42.174Z,3.33
2019-06-20T00:37:10.679Z,3.30
2019-06-20T00:39:39.218Z,5.00
2019-06-20T00:42:07.750Z,4.30
2019-06-20T00:44:36.359Z,3.83
2019-06-20T00:47:04.947Z,6.73
2019-06-20T00:49:33.463Z,3.57
2019-06-20T00:52:02.017Z,5.43
2019-06-20T00:54:30.627Z,5.27
2019-06-20T00:56:59.178Z,6.27
2019-06-20T00:59:27.774Z,5.33
2019-06-20T01:01:56.296Z,4.80
2019-06-20T01:04:24.920Z,7.50
2019-06-20T01:06:53.406Z,6.40
2019-06-20T01:09:22.033Z,6.73
2019-06-20T01:11:50.585Z,6.67
2019-06-20T01:14:19.110Z,7.73
2019-06-20T01:16:47.633Z,7.27
2019-06-20T01:19:16.230Z,7.27
2019-06-20T01:21:44.897Z,11.63
2019-06-20T01:24:13.384Z,13.73
2019-06-20T01:26:41.923Z,10.70
2019-06-20T01:29:10.426Z,13.63
2019-06-20T01:31:38.955Z,14.00
2019-06-20T01:34:07.453Z,14.10
2019-06-20T01:36:35.982Z,13.67
2019-06-20T01:39:05.399Z,14.37
2019-06-20T01:41:33.949Z,15.63
2019-06-20T01:44:02.514Z,13.73
2019-06-20T01:46:31.108Z,16.57
2019-06-20T01:49:00.017Z,17.70
2019-06-20T01:51:28.530Z,16.60
2019-06-20T01:53:57.103Z,18.53
2019-06-20T01:56:25.631Z,21.17
2019-06-20T01:58:54.139Z,16.20
2019-06-20T02:01:22.749Z,17.20
2019-06-20T02:03:51.383Z,18.83
2019-06-20T02:06:19.910Z,21.77
2019-06-20T02:08:48.418Z,17.90
2019-06-20T02:11:16.957Z,20.47
2019-06-20T02:13:45.490Z,23.53
2019-06-20T02:16:13.990Z,21.23
2019-06-20T02:18:42.535Z,24.43
2019-06-20T02:21:11.120Z,23.47
2019-06-20T02:23:39.660Z,21.77
2019-06-20T02:26:08.167Z,22.40
2019-06-20T02:28:36.708Z,27.50
2019-06-20T02:31:05.313Z,24.87
2019-06-20T02:33:33.821Z,22.90
2019-06-20T02:36:02.365Z,30.37
2019-06-20T02:38:31.026Z,26.27
2019-06-20T02:40:59.677Z,23.87
2019-06-20T02:43:28.500Z,28.67
2019-06-20T02:45:57.098Z,28.57
2019-06-20T02:48:25.843Z,25.43
2019-06-20T02:50:54.567Z,26.47
2019-06-20T02:53:23.248Z,27.10
2019-06-20T02:55:52.004Z,24.27
2019-06-20T02:58:20.682Z,23.83
2019-06-20T03:00:56.407Z,24.60
2019-06-20T03:03:25.399Z,24.20
2019-06-20T03:05:54.298Z,23.03
2019-06-20T03:08:23.148Z,23.00
2019-06-20T03:10:51.809Z,27.03
2019-06-20T03:13:20.437Z,29.23
2019-06-20T03:15:50.125Z,25.82
2019-06-20T03:18:18.951Z,23.37
2019-06-20T03:20:47.461Z,22.67
2019-06-20T03:23:16.010Z,22.80
2019-06-20T03:25:44.532Z,24.87
2019-06-20T03:28:13.085Z,22.33
2019-06-20T03:30:41.768Z,25.43
2019-06-20T03:33:10.351Z,23.60
2019-06-20T03:35:38.848Z,22.23
2019-06-20T03:38:07.354Z,19.50
2019-06-20T03:40:35.875Z,20.20
2019-06-20T03:43:04.393Z,23.40
2019-06-20T03:45:32.933Z,22.50
2019-06-20T03:48:01.455Z,20.13
2019-06-20T03:50:29.975Z,18.77
2019-06-20T03:53:01.336Z,19.33
2019-06-20T03:55:30.286Z,18.00
2019-06-20T03:57:59.535Z,14.93
2019-06-20T04:00:30.243Z,18.20
2019-06-20T04:02:58.811Z,15.77
2019-06-20T04:05:27.337Z,18.57
2019-06-20T04:07:55.990Z,18.07
2019-06-20T04:10:24.497Z,17.00
2019-06-20T04:12:53.054Z,20.80
2019-06-20T04:15:21.559Z,14.13
2019-06-20T04:17:50.123Z,15.60
2019-06-20T04:20:18.651Z,14.00
2019-06-20T04:22:47.181Z,13.17
2019-06-20T04:25:15.666Z,13.93
2019-06-20T04:27:44.186Z,13.83
2019-06-20T04:30:12.844Z,14.27
2019-06-20T04:32:41.323Z,11.40
2019-06-20T04:35:09.881Z,11.77
2019-06-20T04:37:38.394Z,12.70
2019-06-20T04:40:07.619Z,12.63
2019-06-20T04:42:36.183Z,12.60
2019-06-20T04:45:13.075Z,12.00
2019-06-20T04:47:41.562Z,13.03
2019-06-20T04:50:10.087Z,12.57
2019-06-20T04:52:38.662Z,9.80
2019-06-20T04:55:07.209Z,11.47
2019-06-20T04:57:35.747Z,10.43
2019-06-20T05:00:05.091Z,10.97
2019-06-20T05:02:36.674Z,10.63
2019-06-20T05:05:05.945Z,14.70
2019-06-20T05:07:34.481Z,12.10
2019-06-20T05:10:03.009Z,11.57
2019-06-20T05:12:31.622Z,13.70
2019-06-20T05:15:00.182Z,14.17
2019-06-20T05:17:28.707Z,13.80
2019-06-20T05:19:57.234Z,15.23
2019-06-20T05:22:25.771Z,13.37
2019-06-20T05:24:54.248Z,12.90
2019-06-20T05:27:22.769Z,13.63
2019-06-20T05:29:51.368Z,15.27
2019-06-20T05:32:19.896Z,14.40
2019-06-20T05:34:48.421Z,14.67
2019-06-20T05:37:17.028Z,17.23
2019-06-20T05:39:45.736Z,17.40
2019-06-20T05:42:14.357Z,17.50
2019-06-20T05:44:42.888Z,16.03
2019-06-20T05:47:13.853Z,19.67
2019-06-20T05:49:41.687Z,15.77
2019-06-20T05:52:10.336Z,16.10
2019-06-20T05:54:39.817Z,18.53
2019-06-20T05:57:08.442Z,17.13
2019-06-20T05:59:37.089Z,15.10
2019-06-20T06:02:05.608Z,18.47
2019-06-20T06:04:34.178Z,19.10
2019-06-20T06:07:02.740Z,19.10
2019-06-20T06:09:31.280Z,14.93
2019-06-20T06:14:34.627Z,18.07
2019-06-20T06:17:03.603Z,14.67
2019-06-20T06:19:32.233Z,16.10
2019-06-20T06:22:00.770Z,16.90
2019-06-20T06:24:29.319Z,17.75
2019-06-20T06:26:59.950Z,15.13
2019-06-20T06:29:28.140Z,14.57
2019-06-20T06:31:56.706Z,18.10
2019-06-20T06:34:25.245Z,17.10
2019-06-20T06:36:53.877Z,14.07
2019-06-20T06:39:22.388Z,19.60
2019-06-20T06:41:51.039Z,16.80
2019-06-20T06:44:19.664Z,13.83
2019-06-20T06:46:54.143Z,13.57
2019-06-20T06:49:18.448Z,12.43
2019-06-20T06:51:47.053Z,12.67
2019-06-20T06:54:15.588Z,13.27
2019-06-20T06:56:44.139Z,10.97
2019-06-20T06:59:12.758Z,11.60
2019-06-20T07:01:41.261Z,12.40
2019-06-20T07:04:09.747Z,11.93
2019-06-20T07:06:38.303Z,11.50
2019-06-20T07:09:08.338Z,15.63
2019-06-20T07:11:37.116Z,12.25
2019-06-20T07:14:05.730Z,12.30
2019-06-20T07:16:34.353Z,11.37
2019-06-20T07:19:03.005Z,10.37
2019-06-20T07:21:31.537Z,11.30
2019-06-20T07:24:00.135Z,14.07
2019-06-20T07:26:28.625Z,12.47
2019-06-20T07:28:57.150Z,8.77
2019-06-20T07:31:25.644Z,9.80
2019-06-20T07:33:54.166Z,10.97
2019-06-20T07:36:22.663Z,12.40
2019-06-20T07:38:51.155Z,9.13
2019-06-20T07:41:19.666Z,12.00
2019-06-20T07:43:48.191Z,12.30
2019-06-20T07:46:16.776Z,10.57
2019-06-20T07:48:46.659Z,9.93
2019-06-20T07:51:15.178Z,10.77
2019-06-20T07:53:43.725Z,9.77
2019-06-20T07:56:12.234Z,11.93
2019-06-20T07:58:40.792Z,9.47
2019-06-20T08:01:09.382Z,8.83
2019-06-20T08:03:37.968Z,7.60
2019-06-20T08:06:06.519Z,9.83
2019-06-20T08:08:35.054Z,10.40
2019-06-20T08:11:03.586Z,7.90
2019-06-20T08:13:32.152Z,7.53
2019-06-20T08:16:03.644Z,10.80
2019-06-20T08:18:31.046Z,7.47
2019-06-20T08:20:59.546Z,9.67
2019-06-20T08:23:28.065Z,7.97
2019-06-20T08:25:57.560Z,7.07
2019-06-20T08:28:26.841Z,7.93
2019-06-20T08:30:56.088Z,6.40
2019-06-20T08:33:25.743Z,9.40
2019-06-20T08:35:54.234Z,7.30
2019-06-20T08:38:22.833Z,7.97
2019-06-20T08:40:51.330Z,6.67
2019-06-20T08:43:19.852Z,5.87
2019-06-20T08:45:48.414Z,7.47
2019-06-20T08:48:17.048Z,6.83
2019-06-20T08:50:45.642Z,7.23
2019-06-20T08:53:14.158Z,5.77
2019-06-20T08:55:42.698Z,6.97
2019-06-20T08:58:11.193Z,6.63
2019-06-20T09:00:39.736Z,5.87
2019-06-20T09:03:08.253Z,6.97
2019-06-20T09:05:36.810Z,7.67
2019-06-20T09:08:05.516Z,5.47
2019-06-20T09:10:36.930Z,6.23
2019-06-20T09:13:06.102Z,6.00
2019-06-20T09:15:34.665Z,7.13
2019-06-20T09:18:03.237Z,7.50
2019-06-20T09:20:32.617Z,49.27
2019-06-20T09:23:03.302Z,15.83
2019-06-20T09:25:32.579Z,8.30
2019-06-20T09:28:02.603Z,6.63
2019-06-20T09:30:32.008Z,7.90
2019-06-20T09:33:01.148Z,7.53
2019-06-20T09:35:30.222Z,5.50
2019-06-20T09:37:59.423Z,6.03
2019-06-20T09:40:28.003Z,10.87
2019-06-20T09:42:56.548Z,7.87
2019-06-20T09:45:25.683Z,5.03
2019-06-20T09:47:54.283Z,6.23
2019-06-20T09:50:24.369Z,6.00
2019-06-20T09:52:53.767Z,4.30
2019-06-20T09:55:23.428Z,5.37
2019-06-20T09:57:53.630Z,4.33
2019-06-20T10:00:23.291Z,5.10
2019-06-20T10:02:53.889Z,5.00
2019-06-20T10:05:22.581Z,5.40
2019-06-20T10:07:52.258Z,7.63
2019-06-20T10:10:22.525Z,4.53
2019-06-20T10:12:51.903Z,4.70
2019-06-20T10:15:21.567Z,5.30
2019-06-20T10:17:50.283Z,10.17
2019-06-20T10:20:18.974Z,11.95
2019-06-20T10:22:48.527Z,9.07
2019-06-20T10:25:17.474Z,7.57
2019-06-20T10:27:47.881Z,10.57
2019-06-20T10:30:16.868Z,16.43
2019-06-20T10:32:46.783Z,16.93
2019-06-20T10:35:15.627Z,10.60
2019-06-20T10:37:45.596Z,7.40
2019-06-20T10:40:15.656Z,6.10
2019-06-20T10:42:46.096Z,10.67
2019-06-20T10:45:16.276Z,12.40
2019-06-20T10:47:47.127Z,10.73
2019-06-20T10:50:16.238Z,10.33
2019-06-20T10:52:45.284Z,9.97
2019-06-20T10:55:14.016Z,8.70
2019-06-20T10:57:42.986Z,10.67
2019-06-20T11:00:26.800Z,9.27
2019-06-20T11:02:44.917Z,8.25
2019-06-20T11:05:13.960Z,8.83
2019-06-20T11:07:43.840Z,8.70
2019-06-20T11:10:12.628Z,7.78
2019-06-20T11:12:47.374Z,7.63
2019-06-20T11:15:11.579Z,11.60
2019-06-20T11:17:40.408Z,9.30
2019-06-20T11:20:09.914Z,8.97
2019-06-20T11:22:39.803Z,8.03
2019-06-20T11:25:09.625Z,8.60
2019-06-20T11:27:38.739Z,8.60
2019-06-20T11:30:08.703Z,8.33
2019-06-20T11:32:38.335Z,8.63
2019-06-20T11:35:08.195Z,10.50
2019-06-20T11:37:37.654Z,12.70
2019-06-20T11:40:10.618Z,10.30
2019-06-20T11:42:39.945Z,10.77
2019-06-20T11:45:08.511Z,9.70
2019-06-20T11:47:38.188Z,11.43
2019-06-20T11:50:07.135Z,8.97
2019-06-20T11:52:40.600Z,10.75
2019-06-20T11:55:06.069Z,14.03
2019-06-20T11:57:34.621Z,15.23
2019-06-20T12:00:03.359Z,16.67
2019-06-20T12:02:31.926Z,17.30
2019-06-20T12:05:00.514Z,17.90
2019-06-20T12:07:29.060Z,17.27
2019-06-20T12:09:57.653Z,16.00
2019-06-20T12:12:26.299Z,16.30
2019-06-20T12:14:54.907Z,17.60
2019-06-20T12:17:23.494Z,19.20
2019-06-20T12:19:52.076Z,15.00
2019-06-20T12:22:20.766Z,35.77
2019-06-20T12:24:49.357Z,16.23
2019-06-20T12:27:17.945Z,16.83
2019-06-20T12:29:46.586Z,19.27
2019-06-20T12:32:17.889Z,17.17
2019-06-20T12:34:46.631Z,14.87
2019-06-20T12:37:15.415Z,15.73
2019-06-20T12:39:44.425Z,16.47
2019-06-20T12:42:13.195Z,17.97
2019-06-20T12:44:41.802Z,16.33
2019-06-20T12:47:10.545Z,14.13
2019-06-20T12:49:40.203Z,15.80
2019-06-20T12:52:09.642Z,15.67
2019-06-20T12:54:40.967Z,13.07
2019-06-20T12:57:08.857Z,15.00
2019-06-20T12:59:38.076Z,14.27
2019-06-20T13:02:07.928Z,15.30
2019-06-20T13:04:38.288Z,15.40
2019-06-20T13:07:07.081Z,15.10
2019-06-20T13:09:35.900Z,15.10
2019-06-20T13:12:04.860Z,14.60
2019-06-20T13:14:33.420Z,14.03
2019-06-20T13:17:01.982Z,12.00
2019-06-20T13:19:30.588Z,12.80
2019-06-20T13:21:59.227Z,11.63
2019-06-20T13:24:27.819Z,7.27
2019-06-20T13:26:56.399Z,5.53
2019-06-20T13:29:25.126Z,6.67
2019-06-20T13:32:03.233Z,6.50
2019-06-20T13:34:24.099Z,7.57
2019-06-20T13:36:52.711Z,7.70
2019-06-20T13:39:21.396Z,8.40
2019-06-20T13:41:50.348Z,10.00
2019-06-20T13:44:19.554Z,7.00
2019-06-20T13:46:49.015Z,8.07
2019-06-20T13:49:17.606Z,7.93
2019-06-20T13:51:46.135Z,9.47
2019-06-20T13:54:14.787Z,9.27
2019-06-20T13:56:43.657Z,22.33
2019-06-20T13:59:12.340Z,12.27
2019-06-20T14:01:42.077Z,10.23
2019-06-20T14:04:11.473Z,11.47
2019-06-20T14:06:42.076Z,8.67
2019-06-20T14:09:10.269Z,12.70
2019-06-20T14:11:40.029Z,9.57
2019-06-20T14:14:09.216Z,10.47
2019-06-20T14:16:37.736Z,10.10
2019-06-20T14:19:06.314Z,9.47
2019-06-20T14:21:34.871Z,10.10
2019-06-20T14:24:03.492Z,8.83
2019-06-20T14:26:31.968Z,7.90
2019-06-20T14:29:00.615Z,8.03
2019-06-20T14:31:30.030Z,9.90
2019-06-20T14:33:58.554Z,11.37
2019-06-20T14:36:27.045Z,9.60
2019-06-20T14:38:55.583Z,9.60
2019-06-20T14:41:24.100Z,7.37
2019-06-20T14:43:53.742Z,9.60
2019-06-20T14:46:22.494Z,9.70
2019-06-20T14:48:51.026Z,8.80
2019-06-20T14:51:19.609Z,11.47
2019-06-20T14:53:49.216Z,10.93
2019-06-20T14:56:17.980Z,10.43
2019-06-20T14:58:46.749Z,14.27
2019-06-20T15:01:15.383Z,13.27
2019-06-20T15:03:45.630Z,15.10
2019-06-20T15:06:14.274Z,10.37
2019-06-20T15:08:43.964Z,10.27
2019-06-20T15:11:13.131Z,9.33
2019-06-20T15:13:41.615Z,8.88
2019-06-20T15:16:10.167Z,8.97
2019-06-20T15:18:38.696Z,9.67
2019-06-20T15:21:07.254Z,9.53
2019-06-20T15:23:35.928Z,10.17
2019-06-20T15:26:04.621Z,8.10
2019-06-20T15:28:33.185Z,9.77
2019-06-20T15:31:01.788Z,9.87
2019-06-20T15:33:30.323Z,11.37
2019-06-20T15:35:58.832Z,10.40
2019-06-20T15:38:27.474Z,9.30
2019-06-20T15:40:56.044Z,9.00
2019-06-20T15:43:24.674Z,7.40
2019-06-20T15:45:53.925Z,8.77
2019-06-20T15:48:23.500Z,5.33
2019-06-20T15:50:52.813Z,8.33
2019-06-20T15:53:22.017Z,5.63
2019-06-20T15:55:51.167Z,7.20
2019-06-20T15:58:20.215Z,9.10
2019-06-20T16:00:49.399Z,6.10
2019-06-20T16:03:18.611Z,6.67
2019-06-20T16:05:47.813Z,7.03
2019-06-20T16:08:16.930Z,6.20
2019-06-20T16:10:46.151Z,13.40
2019-06-20T16:13:15.251Z,16.40
2019-06-20T16:15:44.431Z,7.37
2019-06-20T16:18:33.993Z,6.57
2019-06-20T16:21:03.234Z,7.13
2019-06-20T16:23:33.741Z,6.60
2019-06-20T16:26:02.890Z,8.47
2019-06-20T16:28:32.078Z,5.23
2019-06-20T16:31:10.010Z,6.53
2019-06-20T16:33:32.212Z,5.23
2019-06-20T16:36:01.659Z,5.97
2019-06-20T16:38:31.880Z,5.33
2019-06-20T16:41:01.061Z,5.43
2019-06-20T16:43:32.633Z,6.03
2019-06-20T16:46:01.961Z,7.77
2019-06-20T16:48:31.062Z,6.20
2019-06-20T16:51:00.219Z,9.77
2019-06-20T16:53:29.491Z,8.80
2019-06-20T16:55:58.685Z,6.85
2019-06-20T16:58:27.889Z,4.93
2019-06-20T17:00:57.253Z,7.30
2019-06-20T17:03:40.850Z,9.73
2019-06-20T17:05:57.243Z,6.97
2019-06-20T17:08:26.648Z,8.63
2019-06-20T17:10:55.750Z,6.53
2019-06-20T17:13:24.864Z,4.13
2019-06-20T17:15:54.029Z,4.47
2019-06-20T17:18:23.174Z,4.83
2019-06-20T17:20:52.256Z,7.57
2019-06-20T17:23:21.354Z,5.27
2019-06-20T17:25:50.483Z,5.30
2019-06-20T17:28:19.672Z,2.83
2019-06-20T17:30:48.808Z,4.55
2019-06-20T17:33:17.908Z,5.57
2019-06-20T17:35:47.083Z,3.20
2019-06-20T17:38:16.152Z,5.12
2019-06-20T17:40:47.306Z,3.50
2019-06-20T17:43:17.399Z,8.07
2019-06-20T17:45:46.592Z,3.97
2019-06-20T17:48:16.018Z,6.17
2019-06-20T17:50:46.422Z,4.60
2019-06-20T17:53:15.553Z,4.30
2019-06-20T17:55:44.672Z,3.63
2019-06-20T17:58:13.763Z,6.57
2019-06-20T18:00:42.907Z,5.63
2019-06-20T18:03:11.993Z,5.60
2019-06-20T18:05:41.124Z,5.67
2019-06-20T18:08:15.136Z,11.00
2019-06-20T18:10:41.099Z,12.13
2019-06-20T18:13:09.640Z,8.83
2019-06-20T18:15:38.209Z,8.65
2019-06-20T18:18:06.770Z,13.70
2019-06-20T18:20:35.312Z,9.43
2019-06-20T18:23:03.965Z,7.83
2019-06-20T18:25:32.508Z,11.10
2019-06-20T18:28:01.039Z,7.63
2019-06-20T18:30:33.382Z,7.73
2019-06-20T18:33:01.983Z,10.23
2019-06-20T18:35:30.576Z,14.60
2019-06-20T18:37:59.088Z,33.37
2019-06-20T18:40:27.667Z,17.70
2019-06-20T18:42:56.227Z,9.93
2019-06-20T18:45:24.767Z,7.40
2019-06-20T18:47:53.259Z,9.77
2019-06-20T18:50:21.776Z,6.93
2019-06-20T18:52:52.503Z,5.97
2019-06-20T18:55:20.552Z,8.30
2019-06-20T18:57:49.123Z,8.17
2019-06-20T19:00:33.734Z,8.13
2019-06-20T19:02:48.282Z,6.83
2019-06-20T19:05:16.909Z,9.43
2019-06-20T19:07:45.426Z,10.28
2019-06-20T19:10:15.174Z,9.57
2019-06-20T19:12:43.762Z,8.33
2019-06-20T19:15:12.341Z,9.53
2019-06-20T19:17:40.891Z,8.20
2019-06-20T19:20:09.618Z,9.00
2019-06-20T19:22:38.167Z,7.23
2019-06-20T19:25:07.192Z,10.80
2019-06-20T19:27:45.650Z,10.77
2019-06-20T19:30:06.906Z,10.67
2019-06-20T19:32:35.858Z,12.90
2019-06-20T19:35:04.616Z,11.07
2019-06-20T19:37:33.176Z,8.77
2019-06-20T19:40:01.998Z,10.70
2019-06-20T19:42:30.552Z,8.00
2019-06-20T19:44:59.368Z,9.30
2019-06-20T19:47:27.938Z,10.00
2019-06-20T19:49:56.529Z,10.43
2019-06-20T19:52:25.012Z,9.68
2019-06-20T19:54:53.591Z,48.03
2019-06-20T19:57:22.295Z,21.73
2019-06-20T19:59:50.831Z,22.63
2019-06-20T20:02:19.300Z,10.00
2019-06-20T20:04:47.847Z,10.00
2019-06-20T20:07:17.238Z,12.67
2019-06-20T20:09:45.832Z,9.20
2019-06-20T20:12:14.394Z,9.80
2019-06-20T20:14:42.968Z,9.73
2019-06-20T20:17:11.452Z,8.60
2019-06-20T20:19:40.003Z,13.47
2019-06-20T20:22:08.624Z,7.83
2019-06-20T20:24:37.223Z,10.77
2019-06-20T20:27:05.750Z,11.83
2019-06-20T20:29:34.260Z,8.50
2019-06-20T20:32:02.883Z,8.63
2019-06-20T20:34:31.412Z,11.07
2019-06-20T20:36:59.954Z,10.67
2019-06-20T20:39:28.467Z,9.10
2019-06-20T20:41:57.046Z,11.10
2019-06-20T20:44:26.608Z,7.37
2019-06-20T20:46:56.182Z,9.93
2019-06-20T20:49:24.713Z,7.90
2019-06-20T20:51:53.468Z,11.57
2019-06-20T20:54:22.197Z,10.53
2019-06-20T20:56:50.709Z,8.80
2019-06-20T20:59:19.856Z,6.00
2019-06-20T21:01:49.112Z,5.60
2019-06-20T21:04:17.835Z,7.23
2019-06-20T21:06:46.379Z,9.93
2019-06-20T21:09:14.911Z,7.43
2019-06-20T21:11:43.457Z,6.37
2019-06-20T21:14:12.007Z,7.13
2019-06-20T21:16:40.628Z,6.70
2019-06-20T21:19:09.164Z,9.50
2019-06-20T21:21:37.664Z,4.50
2019-06-20T21:24:06.245Z,8.50
2019-06-20T21:26:48.408Z,5.03
2019-06-20T21:29:05.139Z,6.67
2019-06-20T21:31:33.747Z,11.43
2019-06-20T21:34:02.496Z,5.87
2019-06-20T21:36:31.066Z,6.30
2019-06-20T21:38:59.668Z,4.27
2019-06-20T21:41:30.018Z,3.77
2019-06-20T21:43:59.011Z,6.03
2019-06-20T21:46:32.994Z,5.23
2019-06-20T21:49:01.967Z,6.57
2019-06-20T21:51:30.673Z,4.13
2019-06-20T21:53:59.305Z,6.27
2019-06-20T21:56:27.978Z,5.87
2019-06-20T21:58:56.632Z,4.20
2019-06-20T22:01:25.452Z,4.43
2019-06-20T22:03:54.098Z,5.67
2019-06-20T22:06:23.997Z,3.73
2019-06-20T22:08:52.951Z,4.77
2019-06-20T22:11:21.544Z,4.55
2019-06-20T22:13:50.082Z,5.00
2019-06-20T22:16:18.736Z,3.03
2019-06-20T22:18:47.405Z,5.47
2019-06-20T22:21:15.908Z,4.33
2019-06-20T22:23:44.425Z,3.60
2019-06-20T22:26:13.083Z,7.30
2019-06-20T22:28:41.630Z,2.73
2019-06-20T22:31:10.125Z,2.93
2019-06-20T22:33:38.750Z,5.33
2019-06-20T22:36:07.390Z,5.33
2019-06-20T22:38:35.972Z,5.03
2019-06-20T22:41:04.534Z,5.93
2019-06-20T22:43:33.146Z,3.63
2019-06-20T22:46:01.801Z,3.73
2019-06-20T22:48:30.388Z,5.83
2019-06-20T22:50:58.971Z,7.70
2019-06-20T22:53:27.668Z,6.37
2019-06-20T22:55:56.225Z,3.10
2019-06-20T22:58:24.831Z,5.93
2019-06-20T23:00:53.463Z,4.17
2019-06-20T23:03:22.062Z,5.60
2019-06-20T23:05:50.624Z,4.57
2019-06-20T23:08:19.370Z,6.07
2019-06-20T23:10:48.253Z,3.73
2019-06-20T23:13:16.828Z,5.70
2019-06-20T23:15:45.428Z,3.80
2019-06-20T23:18:13.992Z,4.83
2019-06-20T23:20:42.642Z,7.70
2019-06-20T23:23:11.214Z,4.90
2019-06-20T23:25:41.560Z,5.63
2019-06-20T23:28:10.249Z,4.03
2019-06-20T23:30:39.078Z,3.30
2019-06-20T23:33:07.618Z,3.40
2019-06-20T23:35:36.186Z,2.27
2019-06-20T23:38:04.794Z,5.47
2019-06-20T23:40:33.353Z,4.63
2019-06-20T23:43:01.942Z,4.57
2019-06-20T23:45:30.635Z,4.30
2019-06-20T23:47:59.298Z,5.28
2019-06-20T23:50:27.792Z,5.57
2019-06-20T23:53:04.018Z,5.00
2019-06-20T23:55:32.624Z,6.10
2019-06-20T23:58:01.170Z,5.67
